createdAt,value
2022-09-06T00:00:41.215Z,20.60
2022-09-06T00:06:43.201Z,20.60
2022-09-06T00:12:45.172Z,20.50
2022-09-06T00:18:47.341Z,20.40
2022-09-06T00:24:49.446Z,20.30
2022-09-06T00:30:51.624Z,20.20
2022-09-06T00:36:54.414Z,20.10
2022-09-06T00:42:59.419Z,20.10
2022-09-06T00:49:09.261Z,20.10
2022-09-06T00:55:11.710Z,20.00
2022-09-06T01:01:13.745Z,20.00
2022-09-06T01:07:51.433Z,20.10
2022-09-06T01:14:33.862Z,20.10
2022-09-06T01:21:01.759Z,20.10
2022-09-06T01:27:43.565Z,20.10
2022-09-06T01:34:06.533Z,20.10
2022-09-06T01:40:09.050Z,20.10
2022-09-06T01:46:39.505Z,20.10
2022-09-06T01:53:09.264Z,20.10
2022-09-06T02:00:05.869Z,20.10
2022-09-06T02:06:18.333Z,20.10
2022-09-06T02:12:22.816Z,19.90
2022-09-06T02:18:44.487Z,19.90
2022-09-06T02:24:51.045Z,19.80
2022-09-06T02:31:01.180Z,19.70
2022-09-06T02:37:03.524Z,19.70
2022-09-06T02:43:06.313Z,19.70
2022-09-06T02:49:08.548Z,19.60
2022-09-06T02:55:11.568Z,19.60
2022-09-06T03:01:13.660Z,19.60
2022-09-06T03:07:15.639Z,19.50
2022-09-06T03:13:18.025Z,19.40
2022-09-06T03:19:20.179Z,19.30
2022-09-06T03:25:22.206Z,19.30
2022-09-06T03:31:24.163Z,19.20
2022-09-06T03:37:26.240Z,19.10
2022-09-06T03:43:28.298Z,19.00
2022-09-06T03:49:30.288Z,18.90
2022-09-06T03:55:32.216Z,18.90
2022-09-06T04:01:34.210Z,18.90
2022-09-06T04:07:37.972Z,19.00
2022-09-06T04:13:39.876Z,18.90
2022-09-06T04:19:41.830Z,18.90
2022-09-06T04:25:49.371Z,18.90
2022-09-06T04:31:51.359Z,18.90
2022-09-06T04:37:53.379Z,18.90
2022-09-06T04:43:55.327Z,18.90
2022-09-06T04:49:57.266Z,18.90
2022-09-06T04:55:59.336Z,18.80
2022-09-06T05:02:01.356Z,18.70
2022-09-06T05:08:03.651Z,18.70
2022-09-06T05:14:05.601Z,18.60
2022-09-06T05:20:08.910Z,18.60
2022-09-06T05:26:10.965Z,18.60
2022-09-06T05:32:12.919Z,18.70
2022-09-06T05:38:15.047Z,18.70
2022-09-06T05:44:17.034Z,18.80
2022-09-06T05:50:18.972Z,18.90
2022-09-06T05:56:22.294Z,19.00
2022-09-06T06:02:25.008Z,19.10
2022-09-06T06:08:27.121Z,19.30
2022-09-06T06:14:29.142Z,19.60
2022-09-06T06:20:31.090Z,19.80
2022-09-06T06:26:35.536Z,19.80
2022-09-06T06:32:37.463Z,19.90
2022-09-06T06:38:42.582Z,19.90
2022-09-06T06:44:44.562Z,19.90
2022-09-06T06:50:46.563Z,19.90
2022-09-06T06:56:48.497Z,19.90
2022-09-06T07:02:50.421Z,20.00
2022-09-06T07:08:52.380Z,20.10
2022-09-06T07:14:54.416Z,20.50
2022-09-06T07:33:41.160Z,23.00
2022-09-06T07:39:43.275Z,23.00
2022-09-06T07:45:45.293Z,22.90
2022-09-06T07:51:48.717Z,22.80
2022-09-06T07:57:50.637Z,22.90
2022-09-06T08:03:52.682Z,23.00
2022-09-06T08:09:54.675Z,23.10
2022-09-06T08:16:06.637Z,23.70
2022-09-06T08:22:08.623Z,24.30
2022-09-06T08:28:11.067Z,24.20
2022-09-06T08:34:14.247Z,25.00
2022-09-06T08:40:23.952Z,25.30
2022-09-06T08:46:41.828Z,25.30
2022-09-06T08:53:18.252Z,25.00
2022-09-06T08:59:20.667Z,24.80
2022-09-06T09:05:36.267Z,24.40
2022-09-06T09:11:43.221Z,24.50
2022-09-06T09:17:47.474Z,24.50
2022-09-06T09:23:58.827Z,24.50
2022-09-06T09:36:28.139Z,28.90
2022-09-06T09:42:35.557Z,28.60
2022-09-06T09:48:38.412Z,28.80
2022-09-06T09:54:46.677Z,29.20
2022-09-06T10:00:49.286Z,31.30
2022-09-06T10:13:29.644Z,33.00
2022-09-06T10:19:42.727Z,31.50
2022-09-06T10:26:31.004Z,31.10
2022-09-06T10:32:56.689Z,30.60
2022-09-06T10:39:26.002Z,29.90
2022-09-06T10:45:38.368Z,31.80
2022-09-06T10:51:59.122Z,33.50
2022-09-06T10:58:20.704Z,33.70
2022-09-06T11:04:32.261Z,34.00
2022-09-06T11:10:38.507Z,34.60
2022-09-06T11:16:57.713Z,35.40
2022-09-06T11:23:14.192Z,35.40
2022-09-06T11:29:26.735Z,35.10
2022-09-06T11:35:33.412Z,36.10
2022-09-06T11:41:41.824Z,35.90
2022-09-06T11:47:51.798Z,37.60
2022-09-06T11:54:07.738Z,37.70
2022-09-06T12:00:25.957Z,38.20
2022-09-06T12:07:07.986Z,38.60
2022-09-06T12:13:54.677Z,37.40
2022-09-06T12:20:08.728Z,37.50
2022-09-06T12:26:11.934Z,37.10
2022-09-06T12:32:22.626Z,37.30
2022-09-06T12:38:25.765Z,37.30
2022-09-06T12:44:42.877Z,37.60
2022-09-06T12:50:44.934Z,37.40
2022-09-06T12:56:46.882Z,36.90
2022-09-06T13:03:28.446Z,36.80
2022-09-06T13:09:31.642Z,37.40
2022-09-06T13:15:33.749Z,38.40
2022-09-06T13:21:39.029Z,38.80
2022-09-06T13:27:50.721Z,39.20
2022-09-06T13:33:58.251Z,38.40
2022-09-06T13:40:05.084Z,37.70
2022-09-06T13:46:10.860Z,38.50
2022-09-06T13:52:13.986Z,40.20
2022-09-06T13:58:16.010Z,39.90
2022-09-06T14:04:21.444Z,38.40
2022-09-06T14:10:23.968Z,38.10
2022-09-06T14:16:26.109Z,38.50
2022-09-06T14:22:28.067Z,39.50
2022-09-06T14:28:38.640Z,39.90
2022-09-06T14:34:40.574Z,40.80
2022-09-06T14:40:44.218Z,41.00
2022-09-06T14:46:47.761Z,42.20
2022-09-06T14:52:49.781Z,41.70
2022-09-06T14:58:51.944Z,41.00
2022-09-06T15:04:55.014Z,40.60
2022-09-06T15:10:58.320Z,38.70
2022-09-06T15:17:00.424Z,39.80
2022-09-06T15:23:33.968Z,40.00
2022-09-06T15:29:29.277Z,41.00
2022-09-06T15:35:31.344Z,40.70
2022-09-06T15:41:36.478Z,40.70
2022-09-06T15:47:40.178Z,40.70
2022-09-06T15:53:42.870Z,40.60
2022-09-06T15:59:45.433Z,40.30
2022-09-06T16:12:09.518Z,40.50
2022-09-06T16:18:12.006Z,39.60
2022-09-06T16:24:14.590Z,39.40
2022-09-06T16:30:16.701Z,38.90
2022-09-06T16:36:19.248Z,38.20
2022-09-06T16:42:21.545Z,37.90
2022-09-06T16:48:23.533Z,37.60
2022-09-06T16:54:25.586Z,37.60
2022-09-06T17:00:27.717Z,36.40
2022-09-06T17:06:30.789Z,35.80
2022-09-06T17:12:32.959Z,35.80
2022-09-06T17:18:35.886Z,34.90
2022-09-06T17:24:39.439Z,33.70
2022-09-06T17:30:41.700Z,32.50
2022-09-06T17:36:43.936Z,31.80
2022-09-06T17:42:45.924Z,30.80
2022-09-06T17:48:48.114Z,29.70
2022-09-06T17:54:50.059Z,28.70
2022-09-06T18:00:52.416Z,27.60
2022-09-06T18:06:54.388Z,26.80
2022-09-06T18:12:56.349Z,26.10
2022-09-06T18:19:01.357Z,25.60
2022-09-06T18:25:03.719Z,25.20
2022-09-06T18:31:12.544Z,24.90
2022-09-06T18:37:14.639Z,24.60
2022-09-06T18:43:16.728Z,24.40
2022-09-06T18:49:19.081Z,24.20
2022-09-06T18:55:21.075Z,24.00
2022-09-06T19:01:23.259Z,23.80
2022-09-06T19:07:28.539Z,23.60
2022-09-06T19:13:33.912Z,23.50
2022-09-06T19:19:35.872Z,23.30
2022-09-06T19:25:37.832Z,23.20
2022-09-06T19:31:40.166Z,23.00
2022-09-06T19:37:42.141Z,22.90
2022-09-06T19:43:44.307Z,22.80
2022-09-06T19:49:46.316Z,22.60
2022-09-06T19:55:48.271Z,22.40
2022-09-06T20:01:50.477Z,22.40
2022-09-06T20:07:52.612Z,22.20
2022-09-06T20:13:54.978Z,22.10
2022-09-06T20:19:56.929Z,22.10
2022-09-06T20:26:07.198Z,21.90
2022-09-06T20:32:09.688Z,21.80
2022-09-06T20:38:12.814Z,21.80
2022-09-06T20:44:14.921Z,21.70
2022-09-06T20:50:17.053Z,21.50
2022-09-06T20:56:22.569Z,21.50
2022-09-06T21:02:24.649Z,21.50
2022-09-06T21:08:26.764Z,21.50
2022-09-06T21:14:28.767Z,21.30
2022-09-06T21:20:31.332Z,21.30
2022-09-06T21:26:33.654Z,21.20
2022-09-06T21:32:35.628Z,21.20
2022-09-06T21:38:42.073Z,21.30
2022-09-06T21:44:44.246Z,21.20
2022-09-06T21:50:48.220Z,21.00
2022-09-06T21:56:50.220Z,20.90
2022-09-06T22:02:52.402Z,20.80
2022-09-06T22:08:55.608Z,20.70
2022-09-06T22:14:57.557Z,20.60
2022-09-06T22:21:08.810Z,20.40
2022-09-06T22:27:10.767Z,20.40
2022-09-06T22:33:12.703Z,20.30
2022-09-06T22:39:14.702Z,20.30
2022-09-06T22:45:16.713Z,20.20
2022-09-06T22:51:18.739Z,20.10
2022-09-06T22:57:20.681Z,20.00
2022-09-06T23:03:23.082Z,20.00
2022-09-06T23:09:25.580Z,19.90
2022-09-06T23:15:27.908Z,20.00
2022-09-06T23:21:29.876Z,20.00
2022-09-06T23:27:31.836Z,19.90
2022-09-06T23:33:37.590Z,19.90
2022-09-06T23:39:39.621Z,19.90
2022-09-06T23:45:42.107Z,19.90
2022-09-06T23:51:44.287Z,19.80
2022-09-06T23:57:46.327Z,19.80
